sensor_id;sensor_type;location;lat;lon;timestamp;P1;durP1;ratioP1;P2;durP2;ratioP2
77518;SDS011;66629;47.346;19.038;2023-03-01T00:01:02;22.23;;;13.65;;
77518;SDS011;66629;47.346;19.038;2023-03-01T00:03:30;21.30;;;13.35;;
77518;SDS011;66629;47.346;19.038;2023-03-01T00:05:55;21.75;;;12.70;;
77518;SDS011;66629;47.346;19.038;2023-03-01T00:08:20;23.23;;;13.32;;
77518;SDS011;66629;47.346;19.038;2023-03-01T00:10:46;19.13;;;13.63;;
77518;SDS011;66629;47.346;19.038;2023-03-01T00:13:11;22.10;;;13.73;;
77518;SDS011;66629;47.346;19.038;2023-03-01T00:15:40;20.45;;;13.55;;
77518;SDS011;66629;47.346;19.038;2023-03-01T00:18:08;21.27;;;13.82;;
77518;SDS011;66629;47.346;19.038;2023-03-01T00:20:34;21.67;;;13.55;;
77518;SDS011;66629;47.346;19.038;2023-03-01T00:23:00;22.50;;;14.73;;
77518;SDS011;66629;47.346;19.038;2023-03-01T00:25:25;23.02;;;14.23;;
77518;SDS011;66629;47.346;19.038;2023-03-01T00:27:51;22.80;;;13.75;;
77518;SDS011;66629;47.346;19.038;2023-03-01T00:30:16;19.38;;;13.50;;
77518;SDS011;66629;47.346;19.038;2023-03-01T00:32:42;21.10;;;13.85;;
77518;SDS011;66629;47.346;19.038;2023-03-01T00:35:07;23.95;;;13.90;;
77518;SDS011;66629;47.346;19.038;2023-03-01T00:37:33;25.85;;;14.38;;
77518;SDS011;66629;47.346;19.038;2023-03-01T00:39:58;22.10;;;13.82;;
77518;SDS011;66629;47.346;19.038;2023-03-01T00:42:24;26.77;;;15.82;;
77518;SDS011;66629;47.346;19.038;2023-03-01T00:44:49;37.33;;;22.40;;
77518;SDS011;66629;47.346;19.038;2023-03-01T00:47:14;28.88;;;17.23;;
77518;SDS011;66629;47.346;19.038;2023-03-01T00:49:40;26.98;;;16.40;;
77518;SDS011;66629;47.346;19.038;2023-03-01T00:52:05;24.15;;;14.52;;
77518;SDS011;66629;47.346;19.038;2023-03-01T00:54:31;25.88;;;15.95;;
77518;SDS011;66629;47.346;19.038;2023-03-01T00:56:56;27.20;;;14.65;;
77518;SDS011;66629;47.346;19.038;2023-03-01T00:59:22;21.25;;;14.93;;
77518;SDS011;66629;47.346;19.038;2023-03-01T01:01:47;20.55;;;13.70;;
77518;SDS011;66629;47.346;19.038;2023-03-01T01:04:13;22.20;;;14.68;;
77518;SDS011;66629;47.346;19.038;2023-03-01T01:06:42;23.35;;;14.00;;
77518;SDS011;66629;47.346;19.038;2023-03-01T01:09:10;21.67;;;14.25;;
77518;SDS011;66629;47.346;19.038;2023-03-01T01:11:48;23.10;;;14.73;;
77518;SDS011;66629;47.346;19.038;2023-03-01T01:14:17;21.85;;;14.32;;
77518;SDS011;66629;47.346;19.038;2023-03-01T01:16:43;25.48;;;14.43;;
77518;SDS011;66629;47.346;19.038;2023-03-01T01:19:10;21.50;;;15.45;;
77518;SDS011;66629;47.346;19.038;2023-03-01T01:21:36;19.45;;;12.65;;
77518;SDS011;66629;47.346;19.038;2023-03-01T01:24:02;19.10;;;12.20;;
77518;SDS011;66629;47.346;19.038;2023-03-01T01:26:29;17.60;;;12.48;;
77518;SDS011;66629;47.346;19.038;2023-03-01T01:28:56;20.33;;;12.05;;
77518;SDS011;66629;47.346;19.038;2023-03-01T01:31:23;20.02;;;11.70;;
77518;SDS011;66629;47.346;19.038;2023-03-01T01:33:49;18.08;;;11.70;;
77518;SDS011;66629;47.346;19.038;2023-03-01T01:36:15;15.93;;;11.73;;
77518;SDS011;66629;47.346;19.038;2023-03-01T01:38:41;20.27;;;12.73;;
77518;SDS011;66629;47.346;19.038;2023-03-01T01:41:07;18.88;;;11.23;;
77518;SDS011;66629;47.346;19.038;2023-03-01T01:46:04;20.05;;;12.95;;
77518;SDS011;66629;47.346;19.038;2023-03-01T01:48:39;21.15;;;13.35;;
77518;SDS011;66629;47.346;19.038;2023-03-01T01:51:16;20.73;;;12.68;;
77518;SDS011;66629;47.346;19.038;2023-03-01T01:53:50;17.95;;;11.57;;
77518;SDS011;66629;47.346;19.038;2023-03-01T01:56:20;21.77;;;12.80;;
77518;SDS011;66629;47.346;19.038;2023-03-01T01:58:48;19.13;;;12.48;;
77518;SDS011;66629;47.346;19.038;2023-03-01T02:01:14;17.40;;;12.50;;
77518;SDS011;66629;47.346;19.038;2023-03-01T02:03:40;19.63;;;12.80;;
77518;SDS011;66629;47.346;19.038;2023-03-01T02:06:27;20.45;;;13.75;;
77518;SDS011;66629;47.346;19.038;2023-03-01T02:08:57;19.70;;;12.95;;
77518;SDS011;66629;47.346;19.038;2023-03-01T02:11:27;19.23;;;12.93;;
77518;SDS011;66629;47.346;19.038;2023-03-01T02:13:55;20.02;;;12.63;;
77518;SDS011;66629;47.346;19.038;2023-03-01T02:16:20;18.73;;;12.60;;
77518;SDS011;66629;47.346;19.038;2023-03-01T02:18:46;17.02;;;11.35;;
77518;SDS011;66629;47.346;19.038;2023-03-01T02:23:59;21.38;;;13.30;;
77518;SDS011;66629;47.346;19.038;2023-03-01T02:26:55;21.52;;;12.07;;
77518;SDS011;66629;47.346;19.038;2023-03-01T02:29:24;18.40;;;12.20;;
77518;SDS011;66629;47.346;19.038;2023-03-01T02:31:52;18.70;;;12.23;;
77518;SDS011;66629;47.346;19.038;2023-03-01T02:34:22;19.15;;;12.48;;
77518;SDS011;66629;47.346;19.038;2023-03-01T02:36:53;17.90;;;12.00;;
77518;SDS011;66629;47.346;19.038;2023-03-01T02:39:31;18.77;;;11.43;;
77518;SDS011;66629;47.346;19.038;2023-03-01T02:42:01;21.00;;;13.02;;
77518;SDS011;66629;47.346;19.038;2023-03-01T02:44:29;18.05;;;11.55;;
77518;SDS011;66629;47.346;19.038;2023-03-01T02:46:55;19.27;;;11.40;;
77518;SDS011;66629;47.346;19.038;2023-03-01T02:49:23;23.13;;;13.02;;
77518;SDS011;66629;47.346;19.038;2023-03-01T02:54:51;19.30;;;13.35;;
77518;SDS011;66629;47.346;19.038;2023-03-01T02:57:19;19.77;;;12.65;;
77518;SDS011;66629;47.346;19.038;2023-03-01T02:59:47;19.35;;;11.05;;
77518;SDS011;66629;47.346;19.038;2023-03-01T03:02:23;16.02;;;10.68;;
77518;SDS011;66629;47.346;19.038;2023-03-01T03:05:01;16.08;;;11.05;;
77518;SDS011;66629;47.346;19.038;2023-03-01T03:07:31;17.13;;;9.95;;
77518;SDS011;66629;47.346;19.038;2023-03-01T03:09:58;16.08;;;10.80;;
77518;SDS011;66629;47.346;19.038;2023-03-01T03:12:23;15.95;;;10.25;;
77518;SDS011;66629;47.346;19.038;2023-03-01T03:14:48;16.40;;;10.07;;
77518;SDS011;66629;47.346;19.038;2023-03-01T03:17:14;17.95;;;10.55;;
77518;SDS011;66629;47.346;19.038;2023-03-01T03:19:39;14.82;;;9.52;;
77518;SDS011;66629;47.346;19.038;2023-03-01T03:22:05;15.25;;;9.80;;
77518;SDS011;66629;47.346;19.038;2023-03-01T03:24:30;17.15;;;10.75;;
77518;SDS011;66629;47.346;19.038;2023-03-01T03:27:03;17.25;;;10.35;;
77518;SDS011;66629;47.346;19.038;2023-03-01T03:29:29;17.52;;;10.82;;
77518;SDS011;66629;47.346;19.038;2023-03-01T03:31:56;16.52;;;10.50;;
77518;SDS011;66629;47.346;19.038;2023-03-01T03:34:22;19.20;;;11.48;;
77518;SDS011;66629;47.346;19.038;2023-03-01T03:36:49;17.95;;;11.52;;
77518;SDS011;66629;47.346;19.038;2023-03-01T03:39:22;17.25;;;11.43;;
77518;SDS011;66629;47.346;19.038;2023-03-01T03:41:48;15.75;;;10.57;;
77518;SDS011;66629;47.346;19.038;2023-03-01T03:44:15;17.73;;;11.00;;
77518;SDS011;66629;47.346;19.038;2023-03-01T03:46:41;17.75;;;11.57;;
77518;SDS011;66629;47.346;19.038;2023-03-01T03:49:06;17.55;;;10.93;;
77518;SDS011;66629;47.346;19.038;2023-03-01T03:51:32;16.58;;;10.73;;
77518;SDS011;66629;47.346;19.038;2023-03-01T03:53:57;20.17;;;10.50;;
77518;SDS011;66629;47.346;19.038;2023-03-01T03:56:22;18.65;;;11.65;;
77518;SDS011;66629;47.346;19.038;2023-03-01T03:58:50;15.30;;;10.35;;
77518;SDS011;66629;47.346;19.038;2023-03-01T04:01:17;15.05;;;9.85;;
77518;SDS011;66629;47.346;19.038;2023-03-01T04:03:42;17.73;;;12.50;;
77518;SDS011;66629;47.346;19.038;2023-03-01T04:06:11;16.92;;;12.45;;
77518;SDS011;66629;47.346;19.038;2023-03-01T04:08:37;17.55;;;10.52;;
77518;SDS011;66629;47.346;19.038;2023-03-01T04:11:04;19.55;;;12.02;;
77518;SDS011;66629;47.346;19.038;2023-03-01T04:13:48;19.60;;;10.82;;
77518;SDS011;66629;47.346;19.038;2023-03-01T04:16:14;16.48;;;10.55;;
77518;SDS011;66629;47.346;19.038;2023-03-01T04:18:39;15.05;;;10.43;;
77518;SDS011;66629;47.346;19.038;2023-03-01T04:21:04;17.45;;;11.13;;
77518;SDS011;66629;47.346;19.038;2023-03-01T04:23:30;16.00;;;11.23;;
77518;SDS011;66629;47.346;19.038;2023-03-01T04:25:57;16.92;;;11.10;;
77518;SDS011;66629;47.346;19.038;2023-03-01T04:30:54;18.88;;;12.63;;
77518;SDS011;66629;47.346;19.038;2023-03-01T04:33:21;19.20;;;12.18;;
77518;SDS011;66629;47.346;19.038;2023-03-01T04:35:47;16.48;;;10.70;;
77518;SDS011;66629;47.346;19.038;2023-03-01T04:38:14;17.17;;;11.60;;
77518;SDS011;66629;47.346;19.038;2023-03-01T04:40:41;15.27;;;10.65;;
77518;SDS011;66629;47.346;19.038;2023-03-01T04:43:08;19.13;;;10.85;;
77518;SDS011;66629;47.346;19.038;2023-03-01T04:45:34;17.35;;;11.55;;
77518;SDS011;66629;47.346;19.038;2023-03-01T04:47:59;20.52;;;11.60;;
77518;SDS011;66629;47.346;19.038;2023-03-01T04:50:25;18.13;;;11.57;;
77518;SDS011;66629;47.346;19.038;2023-03-01T04:52:51;20.08;;;12.45;;
77518;SDS011;66629;47.346;19.038;2023-03-01T04:55:17;17.48;;;10.98;;
77518;SDS011;66629;47.346;19.038;2023-03-01T04:57:42;17.13;;;11.30;;
77518;SDS011;66629;47.346;19.038;2023-03-01T05:00:10;17.60;;;11.00;;
77518;SDS011;66629;47.346;19.038;2023-03-01T05:02:49;16.23;;;11.40;;
77518;SDS011;66629;47.346;19.038;2023-03-01T05:05:26;19.95;;;11.90;;
77518;SDS011;66629;47.346;19.038;2023-03-01T05:07:54;20.48;;;11.90;;
77518;SDS011;66629;47.346;19.038;2023-03-01T05:10:21;21.38;;;12.63;;
77518;SDS011;66629;47.346;19.038;2023-03-01T05:12:47;19.27;;;12.73;;
77518;SDS011;66629;47.346;19.038;2023-03-01T05:15:12;18.42;;;11.02;;
77518;SDS011;66629;47.346;19.038;2023-03-01T05:17:38;17.90;;;11.98;;
77518;SDS011;66629;47.346;19.038;2023-03-01T05:20:03;17.83;;;11.68;;
77518;SDS011;66629;47.346;19.038;2023-03-01T05:22:33;17.38;;;11.10;;
77518;SDS011;66629;47.346;19.038;2023-03-01T05:24:59;16.42;;;11.07;;
77518;SDS011;66629;47.346;19.038;2023-03-01T05:27:24;19.77;;;11.82;;
77518;SDS011;66629;47.346;19.038;2023-03-01T05:29:50;20.08;;;12.43;;
77518;SDS011;66629;47.346;19.038;2023-03-01T05:32:15;18.15;;;12.05;;
77518;SDS011;66629;47.346;19.038;2023-03-01T05:34:41;22.23;;;12.38;;
77518;SDS011;66629;47.346;19.038;2023-03-01T05:37:07;17.67;;;12.07;;
77518;SDS011;66629;47.346;19.038;2023-03-01T05:39:35;19.42;;;12.95;;
77518;SDS011;66629;47.346;19.038;2023-03-01T05:42:01;23.27;;;14.75;;
77518;SDS011;66629;47.346;19.038;2023-03-01T05:44:27;27.48;;;16.33;;
77518;SDS011;66629;47.346;19.038;2023-03-01T05:46:53;21.23;;;14.48;;
77518;SDS011;66629;47.346;19.038;2023-03-01T05:49:19;21.88;;;13.75;;
77518;SDS011;66629;47.346;19.038;2023-03-01T05:51:50;21.27;;;10.35;;
77518;SDS011;66629;47.346;19.038;2023-03-01T05:54:16;15.23;;;9.90;;
77518;SDS011;66629;47.346;19.038;2023-03-01T05:56:43;21.63;;;11.82;;
77518;SDS011;66629;47.346;19.038;2023-03-01T05:59:09;19.83;;;10.90;;
77518;SDS011;66629;47.346;19.038;2023-03-01T06:01:36;16.52;;;12.05;;
77518;SDS011;66629;47.346;19.038;2023-03-01T06:04:02;17.05;;;10.95;;
77518;SDS011;66629;47.346;19.038;2023-03-01T06:06:29;16.75;;;10.32;;
77518;SDS011;66629;47.346;19.038;2023-03-01T06:08:55;17.33;;;11.35;;
77518;SDS011;66629;47.346;19.038;2023-03-01T06:11:21;20.98;;;12.07;;
77518;SDS011;66629;47.346;19.038;2023-03-01T06:13:46;17.58;;;10.70;;
77518;SDS011;66629;47.346;19.038;2023-03-01T06:16:12;18.85;;;13.00;;
77518;SDS011;66629;47.346;19.038;2023-03-01T06:18:39;18.95;;;12.05;;
77518;SDS011;66629;47.346;19.038;2023-03-01T06:21:05;17.38;;;9.13;;
77518;SDS011;66629;47.346;19.038;2023-03-01T06:23:31;19.48;;;12.13;;
77518;SDS011;66629;47.346;19.038;2023-03-01T06:25:56;20.73;;;12.02;;
77518;SDS011;66629;47.346;19.038;2023-03-01T06:28:22;16.73;;;10.73;;
77518;SDS011;66629;47.346;19.038;2023-03-01T06:30:47;17.23;;;12.20;;
77518;SDS011;66629;47.346;19.038;2023-03-01T06:33:14;18.27;;;11.63;;
77518;SDS011;66629;47.346;19.038;2023-03-01T06:35:40;18.38;;;10.57;;
77518;SDS011;66629;47.346;19.038;2023-03-01T06:38:05;17.10;;;9.05;;
77518;SDS011;66629;47.346;19.038;2023-03-01T06:40:31;19.35;;;11.00;;
77518;SDS011;66629;47.346;19.038;2023-03-01T06:42:57;18.05;;;11.93;;
77518;SDS011;66629;47.346;19.038;2023-03-01T06:45:23;17.42;;;11.07;;
77518;SDS011;66629;47.346;19.038;2023-03-01T06:47:49;15.23;;;10.27;;
77518;SDS011;66629;47.346;19.038;2023-03-01T06:50:15;19.20;;;11.15;;
77518;SDS011;66629;47.346;19.038;2023-03-01T06:52:41;15.38;;;9.68;;
77518;SDS011;66629;47.346;19.038;2023-03-01T06:55:08;17.70;;;11.13;;
77518;SDS011;66629;47.346;19.038;2023-03-01T06:57:34;17.52;;;9.75;;
77518;SDS011;66629;47.346;19.038;2023-03-01T07:00:00;24.25;;;11.93;;
77518;SDS011;66629;47.346;19.038;2023-03-01T07:02:25;20.15;;;10.93;;
77518;SDS011;66629;47.346;19.038;2023-03-01T07:04:51;19.83;;;11.95;;
77518;SDS011;66629;47.346;19.038;2023-03-01T07:07:17;19.15;;;10.40;;
77518;SDS011;66629;47.346;19.038;2023-03-01T07:09:44;20.95;;;12.38;;
77518;SDS011;66629;47.346;19.038;2023-03-01T07:12:10;23.52;;;12.93;;
77518;SDS011;66629;47.346;19.038;2023-03-01T07:14:35;20.67;;;13.90;;
77518;SDS011;66629;47.346;19.038;2023-03-01T07:17:01;24.27;;;12.32;;
77518;SDS011;66629;47.346;19.038;2023-03-01T07:19:26;19.58;;;10.65;;
77518;SDS011;66629;47.346;19.038;2023-03-01T07:21:52;18.58;;;11.13;;
77518;SDS011;66629;47.346;19.038;2023-03-01T07:24:20;19.08;;;11.93;;
77518;SDS011;66629;47.346;19.038;2023-03-01T07:26:49;18.95;;;11.80;;
77518;SDS011;66629;47.346;19.038;2023-03-01T07:29:15;18.27;;;12.43;;
77518;SDS011;66629;47.346;19.038;2023-03-01T07:31:41;16.48;;;11.27;;
77518;SDS011;66629;47.346;19.038;2023-03-01T07:34:06;16.48;;;10.18;;
77518;SDS011;66629;47.346;19.038;2023-03-01T07:36:32;19.48;;;11.52;;
77518;SDS011;66629;47.346;19.038;2023-03-01T07:38:57;23.30;;;11.98;;
77518;SDS011;66629;47.346;19.038;2023-03-01T07:41:23;15.38;;;10.52;;
77518;SDS011;66629;47.346;19.038;2023-03-01T07:43:48;17.48;;;11.40;;
77518;SDS011;66629;47.346;19.038;2023-03-01T07:46:14;25.83;;;12.50;;
77518;SDS011;66629;47.346;19.038;2023-03-01T07:48:40;16.80;;;11.00;;
77518;SDS011;66629;47.346;19.038;2023-03-01T07:51:05;16.60;;;9.10;;
77518;SDS011;66629;47.346;19.038;2023-03-01T07:53:32;18.13;;;11.77;;
77518;SDS011;66629;47.346;19.038;2023-03-01T07:56:11;16.95;;;10.68;;
77518;SDS011;66629;47.346;19.038;2023-03-01T07:58:39;17.77;;;10.70;;
77518;SDS011;66629;47.346;19.038;2023-03-01T08:01:06;19.05;;;11.50;;
77518;SDS011;66629;47.346;19.038;2023-03-01T08:03:33;18.92;;;12.95;;
77518;SDS011;66629;47.346;19.038;2023-03-01T08:06:00;18.15;;;11.18;;
77518;SDS011;66629;47.346;19.038;2023-03-01T08:08:26;19.17;;;11.98;;
77518;SDS011;66629;47.346;19.038;2023-03-01T08:10:51;18.63;;;10.95;;
77518;SDS011;66629;47.346;19.038;2023-03-01T08:13:17;17.40;;;10.45;;
77518;SDS011;66629;47.346;19.038;2023-03-01T08:15:47;19.73;;;12.93;;
77518;SDS011;66629;47.346;19.038;2023-03-01T08:18:14;15.02;;;10.60;;
77518;SDS011;66629;47.346;19.038;2023-03-01T08:20:39;15.50;;;10.77;;
77518;SDS011;66629;47.346;19.038;2023-03-01T08:23:05;20.92;;;10.75;;
77518;SDS011;66629;47.346;19.038;2023-03-01T08:25:30;21.20;;;11.63;;
77518;SDS011;66629;47.346;19.038;2023-03-01T08:27:56;15.68;;;10.02;;
77518;SDS011;66629;47.346;19.038;2023-03-01T08:30:21;16.63;;;10.93;;
77518;SDS011;66629;47.346;19.038;2023-03-01T08:32:48;18.10;;;10.55;;
77518;SDS011;66629;47.346;19.038;2023-03-01T08:35:14;19.33;;;11.07;;
77518;SDS011;66629;47.346;19.038;2023-03-01T08:37:39;16.67;;;10.57;;
77518;SDS011;66629;47.346;19.038;2023-03-01T08:40:05;16.17;;;11.10;;
77518;SDS011;66629;47.346;19.038;2023-03-01T08:42:32;15.02;;;10.18;;
77518;SDS011;66629;47.346;19.038;2023-03-01T08:44:57;19.10;;;11.23;;
77518;SDS011;66629;47.346;19.038;2023-03-01T08:47:23;19.65;;;12.50;;
77518;SDS011;66629;47.346;19.038;2023-03-01T08:49:49;25.42;;;18.33;;
77518;SDS011;66629;47.346;19.038;2023-03-01T08:52:15;21.65;;;13.60;;
77518;SDS011;66629;47.346;19.038;2023-03-01T08:54:40;16.42;;;10.95;;
77518;SDS011;66629;47.346;19.038;2023-03-01T08:57:06;18.67;;;9.88;;
77518;SDS011;66629;47.346;19.038;2023-03-01T08:59:31;14.70;;;9.63;;
77518;SDS011;66629;47.346;19.038;2023-03-01T09:02:02;16.42;;;11.25;;
77518;SDS011;66629;47.346;19.038;2023-03-01T09:04:35;15.30;;;10.33;;
77518;SDS011;66629;47.346;19.038;2023-03-01T09:07:00;17.70;;;9.40;;
77518;SDS011;66629;47.346;19.038;2023-03-01T09:09:26;14.20;;;10.05;;
77518;SDS011;66629;47.346;19.038;2023-03-01T09:11:51;12.75;;;8.70;;
77518;SDS011;66629;47.346;19.038;2023-03-01T09:14:17;19.25;;;11.13;;
77518;SDS011;66629;47.346;19.038;2023-03-01T09:16:42;19.60;;;11.25;;
77518;SDS011;66629;47.346;19.038;2023-03-01T09:19:07;17.33;;;11.32;;
77518;SDS011;66629;47.346;19.038;2023-03-01T09:21:33;18.67;;;12.93;;
77518;SDS011;66629;47.346;19.038;2023-03-01T09:23:58;18.13;;;12.40;;
77518;SDS011;66629;47.346;19.038;2023-03-01T09:26:24;18.35;;;12.32;;
77518;SDS011;66629;47.346;19.038;2023-03-01T09:28:50;18.20;;;10.60;;
77518;SDS011;66629;47.346;19.038;2023-03-01T09:31:18;16.75;;;9.85;;
77518;SDS011;66629;47.346;19.038;2023-03-01T09:33:46;17.92;;;9.75;;
77518;SDS011;66629;47.346;19.038;2023-03-01T09:36:13;16.20;;;9.65;;
77518;SDS011;66629;47.346;19.038;2023-03-01T09:38:43;17.42;;;8.77;;
77518;SDS011;66629;47.346;19.038;2023-03-01T09:41:22;12.15;;;8.43;;
77518;SDS011;66629;47.346;19.038;2023-03-01T09:44:00;16.88;;;9.27;;
77518;SDS011;66629;47.346;19.038;2023-03-01T09:46:37;13.50;;;9.20;;
77518;SDS011;66629;47.346;19.038;2023-03-01T09:49:12;15.18;;;8.93;;
77518;SDS011;66629;47.346;19.038;2023-03-01T09:51:42;13.13;;;8.73;;
77518;SDS011;66629;47.346;19.038;2023-03-01T09:54:15;16.90;;;11.30;;
77518;SDS011;66629;47.346;19.038;2023-03-01T09:56:52;13.73;;;10.43;;
77518;SDS011;66629;47.346;19.038;2023-03-01T10:04:46;14.98;;;9.80;;
77518;SDS011;66629;47.346;19.038;2023-03-01T10:10:23;13.80;;;9.07;;
77518;SDS011;66629;47.346;19.038;2023-03-01T10:12:51;13.20;;;9.57;;
77518;SDS011;66629;47.346;19.038;2023-03-01T10:15:19;21.02;;;11.40;;
77518;SDS011;66629;47.346;19.038;2023-03-01T10:17:57;17.13;;;9.75;;
77518;SDS011;66629;47.346;19.038;2023-03-01T10:23:25;16.65;;;10.80;;
77518;SDS011;66629;47.346;19.038;2023-03-01T10:26:07;17.80;;;10.70;;
77518;SDS011;66629;47.346;19.038;2023-03-01T10:31:44;15.30;;;9.25;;
77518;SDS011;66629;47.346;19.038;2023-03-01T10:36:43;13.00;;;9.20;;
77518;SDS011;66629;47.346;19.038;2023-03-01T10:39:14;14.35;;;9.45;;
77518;SDS011;66629;47.346;19.038;2023-03-01T10:41:57;14.70;;;9.80;;
77518;SDS011;66629;47.346;19.038;2023-03-01T10:47:13;16.40;;;10.30;;
77518;SDS011;66629;47.346;19.038;2023-03-01T10:49:39;14.40;;;10.07;;
77518;SDS011;66629;47.346;19.038;2023-03-01T10:52:18;13.65;;;9.05;;
77518;SDS011;66629;47.346;19.038;2023-03-01T10:54:53;14.02;;;8.60;;
77518;SDS011;66629;47.346;19.038;2023-03-01T10:57:35;14.65;;;9.38;;
77518;SDS011;66629;47.346;19.038;2023-03-01T11:02:38;13.88;;;8.35;;
77518;SDS011;66629;47.346;19.038;2023-03-01T11:10:36;11.88;;;8.15;;
77518;SDS011;66629;47.346;19.038;2023-03-01T11:13:08;14.32;;;8.15;;
77518;SDS011;66629;47.346;19.038;2023-03-01T11:15:40;12.90;;;8.48;;
77518;SDS011;66629;47.346;19.038;2023-03-01T11:18:18;14.40;;;8.60;;
77518;SDS011;66629;47.346;19.038;2023-03-01T11:20:45;13.98;;;8.13;;
77518;SDS011;66629;47.346;19.038;2023-03-01T11:23:14;12.80;;;8.35;;
77518;SDS011;66629;47.346;19.038;2023-03-01T11:25:53;16.42;;;8.02;;
77518;SDS011;66629;47.346;19.038;2023-03-01T11:28:21;13.48;;;8.35;;
77518;SDS011;66629;47.346;19.038;2023-03-01T11:30:58;12.10;;;8.05;;
77518;SDS011;66629;47.346;19.038;2023-03-01T11:44:54;14.57;;;8.55;;
77518;SDS011;66629;47.346;19.038;2023-03-01T11:55:52;10.60;;;7.18;;
77518;SDS011;66629;47.346;19.038;2023-03-01T11:58:25;11.02;;;7.25;;
77518;SDS011;66629;47.346;19.038;2023-03-01T12:01:03;12.40;;;8.70;;
77518;SDS011;66629;47.346;19.038;2023-03-01T12:06:26;11.57;;;7.20;;
77518;SDS011;66629;47.346;19.038;2023-03-01T12:28:45;10.98;;;7.10;;
77518;SDS011;66629;47.346;19.038;2023-03-01T12:30:56;14.57;;;7.53;;
77518;SDS011;66629;47.346;19.038;2023-03-01T12:34:03;13.05;;;8.65;;
77518;SDS011;66629;47.346;19.038;2023-03-01T12:36:43;10.15;;;6.40;;
77518;SDS011;66629;47.346;19.038;2023-03-01T12:41:46;8.73;;;5.82;;
77518;SDS011;66629;47.346;19.038;2023-03-01T12:46:51;16.73;;;9.30;;
77518;SDS011;66629;47.346;19.038;2023-03-01T12:49:54;12.07;;;6.70;;
77518;SDS011;66629;47.346;19.038;2023-03-01T12:52:24;10.52;;;5.95;;
77518;SDS011;66629;47.346;19.038;2023-03-01T12:55:01;12.20;;;6.35;;
77518;SDS011;66629;47.346;19.038;2023-03-01T12:57:53;10.63;;;6.30;;
77518;SDS011;66629;47.346;19.038;2023-03-01T13:00:31;9.50;;;6.25;;
77518;SDS011;66629;47.346;19.038;2023-03-01T13:03:00;8.73;;;6.25;;
77518;SDS011;66629;47.346;19.038;2023-03-01T13:05:41;13.98;;;5.68;;
77518;SDS011;66629;47.346;19.038;2023-03-01T13:08:16;10.95;;;7.22;;
77518;SDS011;66629;47.346;19.038;2023-03-01T13:10:55;9.98;;;5.90;;
77518;SDS011;66629;47.346;19.038;2023-03-01T13:13:26;10.23;;;6.35;;
77518;SDS011;66629;47.346;19.038;2023-03-01T13:15:53;15.48;;;8.90;;
77518;SDS011;66629;47.346;19.038;2023-03-01T13:20:48;10.77;;;6.07;;
77518;SDS011;66629;47.346;19.038;2023-03-01T13:33:59;9.82;;;5.40;;
77518;SDS011;66629;47.346;19.038;2023-03-01T13:44:17;9.20;;;5.85;;
77518;SDS011;66629;47.346;19.038;2023-03-01T13:46:51;8.50;;;5.90;;
77518;SDS011;66629;47.346;19.038;2023-03-01T13:49:22;10.63;;;5.55;;
77518;SDS011;66629;47.346;19.038;2023-03-01T13:51:51;9.65;;;5.60;;
77518;SDS011;66629;47.346;19.038;2023-03-01T13:54:25;9.40;;;5.75;;
77518;SDS011;66629;47.346;19.038;2023-03-01T13:56:53;9.07;;;5.82;;
77518;SDS011;66629;47.346;19.038;2023-03-01T13:59:21;9.23;;;5.45;;
77518;SDS011;66629;47.346;19.038;2023-03-01T14:02:10;10.15;;;5.88;;
77518;SDS011;66629;47.346;19.038;2023-03-01T14:04:37;9.68;;;6.05;;
77518;SDS011;66629;47.346;19.038;2023-03-01T14:07:10;11.52;;;6.68;;
77518;SDS011;66629;47.346;19.038;2023-03-01T14:09:47;11.73;;;6.97;;
77518;SDS011;66629;47.346;19.038;2023-03-01T14:12:52;11.35;;;6.22;;
77518;SDS011;66629;47.346;19.038;2023-03-01T14:20:38;10.27;;;6.35;;
77518;SDS011;66629;47.346;19.038;2023-03-01T14:23:10;11.05;;;6.30;;
77518;SDS011;66629;47.346;19.038;2023-03-01T14:25:39;10.52;;;6.22;;
77518;SDS011;66629;47.346;19.038;2023-03-01T14:30:45;10.55;;;6.05;;
77518;SDS011;66629;47.346;19.038;2023-03-01T14:33:22;9.27;;;5.95;;
77518;SDS011;66629;47.346;19.038;2023-03-01T14:35:52;8.70;;;5.22;;
77518;SDS011;66629;47.346;19.038;2023-03-01T14:38:39;12.52;;;5.90;;
77518;SDS011;66629;47.346;19.038;2023-03-01T14:43:53;13.32;;;7.57;;
77518;SDS011;66629;47.346;19.038;2023-03-01T14:46:26;11.70;;;6.53;;
77518;SDS011;66629;47.346;19.038;2023-03-01T14:48:56;10.50;;;5.80;;
77518;SDS011;66629;47.346;19.038;2023-03-01T14:51:27;11.05;;;5.63;;
77518;SDS011;66629;47.346;19.038;2023-03-01T14:53:53;15.63;;;6.18;;
77518;SDS011;66629;47.346;19.038;2023-03-01T14:56:19;10.60;;;6.30;;
77518;SDS011;66629;47.346;19.038;2023-03-01T14:58:45;8.52;;;5.03;;
77518;SDS011;66629;47.346;19.038;2023-03-01T15:01:15;11.40;;;5.50;;
77518;SDS011;66629;47.346;19.038;2023-03-01T15:03:43;9.65;;;5.80;;
77518;SDS011;66629;47.346;19.038;2023-03-01T15:06:11;9.55;;;6.22;;
77518;SDS011;66629;47.346;19.038;2023-03-01T15:08:41;11.60;;;6.63;;
77518;SDS011;66629;47.346;19.038;2023-03-01T15:13:38;8.65;;;5.97;;
77518;SDS011;66629;47.346;19.038;2023-03-01T15:18:44;12.95;;;5.20;;
77518;SDS011;66629;47.346;19.038;2023-03-01T15:29:19;8.13;;;5.47;;
77518;SDS011;66629;47.346;19.038;2023-03-01T15:31:54;8.40;;;4.20;;
77518;SDS011;66629;47.346;19.038;2023-03-01T15:34:31;7.93;;;4.32;;
77518;SDS011;66629;47.346;19.038;2023-03-01T15:37:00;6.97;;;4.43;;
77518;SDS011;66629;47.346;19.038;2023-03-01T15:39:31;8.65;;;5.05;;
77518;SDS011;66629;47.346;19.038;2023-03-01T15:42:02;9.88;;;5.53;;
77518;SDS011;66629;47.346;19.038;2023-03-01T15:44:37;11.57;;;5.88;;
77518;SDS011;66629;47.346;19.038;2023-03-01T15:47:08;12.65;;;6.43;;
77518;SDS011;66629;47.346;19.038;2023-03-01T15:49:48;11.45;;;5.88;;
77518;SDS011;66629;47.346;19.038;2023-03-01T15:52:22;14.85;;;7.05;;
77518;SDS011;66629;47.346;19.038;2023-03-01T15:54:59;14.32;;;6.68;;
77518;SDS011;66629;47.346;19.038;2023-03-01T15:57:27;16.05;;;7.90;;
77518;SDS011;66629;47.346;19.038;2023-03-01T15:59:52;13.73;;;7.22;;
77518;SDS011;66629;47.346;19.038;2023-03-01T16:02:18;11.70;;;6.60;;
77518;SDS011;66629;47.346;19.038;2023-03-01T16:04:46;10.10;;;6.22;;
77518;SDS011;66629;47.346;19.038;2023-03-01T16:07:13;16.90;;;9.48;;
77518;SDS011;66629;47.346;19.038;2023-03-01T16:09:39;12.25;;;8.43;;
77518;SDS011;66629;47.346;19.038;2023-03-01T16:12:05;10.02;;;6.95;;
77518;SDS011;66629;47.346;19.038;2023-03-01T16:14:30;10.05;;;6.53;;
77518;SDS011;66629;47.346;19.038;2023-03-01T16:16:56;14.93;;;6.43;;
77518;SDS011;66629;47.346;19.038;2023-03-01T16:19:21;14.35;;;6.93;;
77518;SDS011;66629;47.346;19.038;2023-03-01T16:21:47;14.85;;;8.60;;
77518;SDS011;66629;47.346;19.038;2023-03-01T16:24:14;14.15;;;8.35;;
77518;SDS011;66629;47.346;19.038;2023-03-01T16:26:39;12.93;;;8.02;;
77518;SDS011;66629;47.346;19.038;2023-03-01T16:29:05;13.73;;;8.43;;
77518;SDS011;66629;47.346;19.038;2023-03-01T16:31:31;19.40;;;10.82;;
77518;SDS011;66629;47.346;19.038;2023-03-01T16:33:57;16.75;;;10.73;;